Station: Tambo  

  Atmospheric Gas Attenuation - ITU Rec 676-11   ----------------- dB/100km -----------------
Date Time Temp RH % AH g/m3 Dew Point Wind Direction Speed kph Gust kph Barometer mB Rainfall Since 9am 24GHz 47GHz 76GHz 122GHz 134GHz 241GHz
08/05 09:00 11.2 44 4.46 -0.5 6 1024 0 10.9 20.6 25.6 66.4 49.9 168.0
07/05 09:00 15.3 90 11.75 13.7 0 1020.6 0.6 26.2 31.0 52.6 138.4 140.4 485.5
06/05 09:00 17.8 92 13.96 16.5 2 1018.4 0 30.8 34.0 60.5 159.7 167.6 580.7
05/05 09:00 19.2 98 16.16 18.9 2 1018.7 12 35.4 37.5 69.7 184.0 197.9 686.4
04/05 09:00 22.5 74 14.78 17.6 2 1017.5 3 32.2 33.6 60.5 159.6 169.0 586.3
03/05 09:00 22.1 73 14.25 17.1 6 1019.1 0 31.1 32.9 58.5 154.5 162.6 563.6
02/05 09:00 21 66 12.09 14.4 2 1019.8 0 26.6 29.6 50.2 132.2 134.8 466.8
01/05 09:00 1013.1
30/04 09:00 19.7 51 8.66 9.5 0 1023.4 0 19.4 24.7 37.6 98.6 92.8 319.5
28/04 09:00 18.2 60 9.33 10.5 0 1021.1 0 20.9 26.1 40.8 107.1 102.9 354.6
27/04 09:00 21.1 60 11.05 13.2 0 1019.2 0 24.4 27.9 45.9 120.8 120.8 417.8
26/04 09:00 18.4 64 10.07 11.6 0 1020.5 0 22.5 27.2 43.6 114.6 112.1 387.1
25/04 09:00 18.6 55 8.75 9.4 2 1024.2 0 19.7 25.2 38.5 100.9 95.3 328.0
24/04 09:00 19 54 8.8 9.7 0 1024.9 0 19.7 25.2 38.5 101.0 95.5 328.8
23/04 09:00 21 65 11.91 14.2 4 1021.1 0 26.2 29.4 49.5 130.4 132.5 458.8
22/04 09:00 21 60 10.99 13.1 2 1020.6 0 24.3 27.8 45.8 120.5 120.3 416.0
21/04 09:00 21.6 52 9.86 11.5 0 1021 0 21.9 25.9 41.1 108.0 105.1 362.8
20/04 09:00 21.1 78 14.37 17.1 2 1019.3 0 31.4 33.5 59.8 157.9 166.5 577.1
19/04 09:00 20.6 38 6.8 5.8 0 1018 0 15.5 21.6 30.4 79.3 69.5 238.1
18/04 09:00 23.1 84 17.36 20.2 0 1016.6 0.2 37.6 38.0 71.6 189.1 205.6 713.7
17/04 09:00 22 73 14.17 17 2 1017.5 0.2 30.9 32.7 58.2 153.5 161.4 559.8
16/04 09:00 23.6 63 13.4 16.3 2 1018.5 0 29.2 30.8 53.8 142.0 147.7 511.9
15/04 09:00 20.1 54 9.39 10.7 0 1019.3 0 20.9 25.6 40.0 105.0 101.0 348.4
14/04 09:00 18.9 40 6.48 5.1 2 1019.6 0 14.9 21.6 30.0 78.1 67.4 230.5
13/04 09:00 15.9 42 5.69 3.2 4 1018.6 0 13.3 21.1 28.2 73.5 60.7 206.5
12/04 09:00 20 49 8.47 9 4 1015.1 0 19.0 24.0 36.4 95.5 89.5 308.0
11/04 09:00 25.3 52 12.17 14.8 2 1013.6 0 26.5 28.1 47.6 125.4 128.0 443.4
10/04 09:00 26.3 54 13.37 16.4 2 1016.8 0 28.9 29.8 51.8 136.6 142.0 492.6
09/04 09:00 25.1 53 12.27 15.1 0 1016.9 0 26.7 28.4 48.2 127.1 129.9 450.1
08/04 09:00 26.4 48 11.95 14.6 0 1016.6 0 26.0 27.5 46.2 121.8 123.8 428.7
07/04 09:00 25.2 54 12.57 15.2 0 1016.4 0 27.3 28.9 49.3 130.0 133.6 462.9
06/04 09:00 23.9 63 13.63 16.5 0 1018.2 0 29.7 31.1 54.6 143.9 150.2 520.7
05/04 09:00 24.1 21 4.59 0.4 2 1018.6 0 10.8 18.0 22.2 57.5 43.7 147.7
04/04 09:00 25.8 52 12.52 15.4 4 1018.6 0 27.2 28.7 48.9 128.8 132.1 457.9
03/04 09:00 25.5 51 12.07 14.8 2 1018.8 0 26.3 28.1 47.3 124.6 126.9 439.6
02/04 09:00 25 61 14.04 17 0 1020 0 30.4 31.5 55.6 146.6 153.8 533.4
01/04 09:00 25.1 68 15.74 18.9 4 1019.1 0 34.0 34.3 62.7 165.5 177.0 614.5
31/03 09:00 24.1 66 14.44 17.4 2 1019.4 0 31.3 32.5 57.9 152.7 161.0 558.6
30/03 09:00 24.3 63 13.94 16.8 2 1018 0 30.3 31.5 55.6 146.6 153.6 532.6
29/03 09:00 18.6 41 6.52 5.3 2 1016.9 0 15.0 21.6 30.1 78.6 68.0 232.5
28/03 09:00 17 33 4.77 0.9 4 1015.9 0 11.4 19.5 24.7 64.0 49.5 167.3
27/03 09:00 23.2 64 13.3 16.1 4 1012.8 0 29.0 30.6 53.4 140.9 146.4 507.6
26/03 09:00 27 52 13.38 16.5 0 1014.2 0 28.9 29.5 51.3 135.2 140.6 487.7
25/03 09:00 25.4 52 12.24 14.9 0 1014.5 0 26.6 28.2 47.8 126.0 128.8 446.3
24/03 09:00 25.6 58 13.81 16.8 2 1014.6 0 29.9 30.7 53.9 142.3 148.9 516.5
23/03 09:00 24.4 63 14.02 17.1 2 1015.5 0 30.5 31.5 55.7 146.9 154.2 534.7
22/03 09:00 25.3 63 14.75 17.9 2 1014.6 0 31.9 32.3 58.0 153.2 162.2 562.9
21/03 09:00 25 62 14.27 17.2 4 1014.8 0 30.9 31.7 56.3 148.5 156.3 542.2
20/03 09:00 25.9 68 16.46 19.5 2 1013 0 35.5 35.0 64.8 171.2 184.6 640.9
19/03 09:00 25.2 61 14.2 17.3 2 1013 0 30.8 31.4 55.7 147.1 154.7 536.8
18/03 09:00 23.7 62 13.26 16.1 2 1015.4 0 28.9 30.5 53.0 139.9 145.2 503.5
17/03 09:00 23.2 65 13.51 16.4 4 1015.4 0 29.5 31.1 54.4 143.5 149.6 518.6
16/03 09:00 23.6 64 13.61 16.5 2 1016.4 0 29.6 31.1 54.6 144.0 150.3 521.0
15/03 09:00 24.7 53 12 14.6 2 1019.9 0 26.2 28.3 47.6 125.3 127.4 441.3
14/03 09:00 26.6 52 13.09 16 6 1018 0 28.3 29.3 50.6 133.3 138.0 478.5
13/03 09:00 28 65 17.68 21 0 1012.3 0 37.9 36.2 68.3 180.5 196.6 683.2
12/03 09:00 25.4 72 16.95 20.1 4 1009.8 0 36.6 35.9 67.2 177.6 192.4 668.3
11/03 09:00 25.2 82 19.09 22 4 1010.8 0 41.1 40.0 77.3 204.4 225.2 782.2
10/03 09:00 24.5 92 20.59 23.2 2 1008 1 44.4 43.1 85.1 225.2 250.7 870.6
09/03 09:00 23.1 99 20.46 23 2 1001.6 37 44.4 43.3 85.6 226.7 252.3 876.0
08/03 09:00 25.2 90 20.95 23.5 0 1005.2 32 45.2 43.4 85.9 227.4 253.6 880.9
07/03 09:00 28.2 71 19.52 22.5 4 1006.1 0 41.8 39.2 75.9 201.0 222.0 771.6
06/03 09:00 28.1 58 15.86 19.1 0 1008.7 0 34.1 32.9 60.2 159.2 170.6 592.4
05/03 09:00 26.4 60 14.94 18.2 4 1010.2 0 32.3 32.1 57.8 152.6 161.9 562.1
04/03 09:00 26.1 59 14.44 17.5 4 1010.9 0 31.2 31.4 56.0 147.8 155.9 541.0
03/03 09:00 26.6 65 16.36 19.6 2 1009.9 0 35.2 34.4 63.6 168.1 181.1 628.8
02/03 09:00 26.6 63 15.86 19.1 4 1008.7 0 34.2 33.5 61.4 162.3 173.9 604.0
01/03 09:00 26.4 67 16.68 19.9 2 1008.5 4 35.9 35.0 65.1 172.0 185.9 645.6
28/02 09:00 26.8 72 18.33 21.3 6 1007 0 39.4 37.7 71.9 190.3 208.5 724.5
27/02 09:00 26.7 67 16.96 20.1 6 1005.7 0 36.5 35.2 65.9 174.2 188.8 655.6
26/02 09:00 26.3 72 17.82 20.9 4 1008.9 0 38.4 37.1 70.2 185.7 202.7 704.0
25/02 09:00 26.4 71 17.67 20.7 4 1010.9 0 38.0 36.8 69.6 184.0 200.5 696.4
24/02 09:00 26 70 17.04 20.1 4 1010.8 0 36.7 35.9 67.1 177.5 192.4 668.0
23/02 09:00 27.4 67 17.63 20.8 4 1009 0 37.8 36.3 68.4 180.9 197.0 684.5
22/02 09:00 26.5 66 16.52 19.7 6 1008 0 35.6 34.6 64.3 169.9 183.3 636.6
21/02 09:00 25.2 71 16.53 19.7 4 1010 0 35.7 35.3 65.5 173.2 186.9 648.9
20/02 08:49 25.8 70 16.85 20 2 1011.2 36.3 35.6 66.5 175.8 190.2 660.4
19/02 09:00 26.5 74 18.52 21.6 4 1011.5 0 39.8 38.4 73.4 194.1 212.8 739.4
18/02 09:00 26.2 65 16 19.2 4 1008.8 0 34.5 33.9 62.3 164.7 176.8 613.9
17/02 09:00 24.5 75 16.78 19.9 6 1007.7 5 36.3 35.9 67.1 177.4 192.0 666.5
16/02 09:00 28.1 52 14.22 17.5 2 1006.6 2 30.6 30.2 53.5 141.2 148.6 515.7
15/02 09:00 22.6 91 18.28 21.1 2 1007.8 2 39.7 39.6 75.8 200.7 219.9 763.5
14/02 09:00 26.1 87 21.3 23.8 4 1007.2 35 45.8 43.7 86.7 229.6 256.5 891.0
13/02 09:00 26.2 92 22.65 24.9 0 1005.3 7 48.7 46.2 93.2 246.8 277.7 964.9
12/02 09:00 30.4 94 29.13 29.3 2 1004.9 0 61.8 57.2 121.3 321.6 370.5 1287.1
11/02 09:00 29.1 66 19.06 22.1 0 1010.8 0.4 40.7 38.1 73.3 193.8 213.4 741.6
10/02 09:00 29.1 66 19.06 22.2 2 1012.8 0 40.7 38.2 73.4 194.2 213.6 742.6
09/02 09:00 28.4 68 18.9 22 2 1011.5 0 40.4 38.2 73.3 193.8 213.1 740.6
08/02 09:00 27.5 66 17.46 20.6 2 1012.9 0 37.5 36.1 67.8 179.2 194.9 676.9
07/02 09:00 27.2 62 16.13 19.3 2 1015.6 0 34.7 34.0 62.4 165.0 177.2 615.3
06/02 09:00 29 58 16.66 20.1 0 1016.9 0 35.6 34.2 63.3 167.3 180.5 627.1
05/02 09:00 28.2 68 18.7 21.7 2 1016.5 0 40.0 38.1 72.9 192.7 211.5 734.8
04/02 09:00 24.6 71 15.98 19 6 1016.1 0 34.6 34.8 63.9 168.9 181.2 629.1
03/02 09:00 25.3 80 18.73 21.7 4 1014.1 0 40.3 39.4 75.7 200.1 219.9 763.7
02/02 09:00 28.7 65 18.37 21.5 2 1009 13 39.3 37.0 70.5 186.4 204.2 709.7
01/02 09:00 32 46 15.53 19 2 1006.4 0 33.1 30.9 55.9 147.8 157.7 548.0
31/01 09:00 29.5 44 12.99 16.2 0 1008.9 0 28.0 27.9 48.0 126.5 130.8 453.9
30/01 09:00 26.6 59 14.85 17.9 2 1013.1 1 32.0 32.0 57.4 151.6 160.7 557.6
29/01 09:00 31.6 47 15.54 18.9 2 1009.9 0 33.1 31.2 56.4 149.1 159.0 552.7
28/01 09:00 28.6 64 17.99 21.2 2 1009.3 9 38.5 36.4 68.9 182.3 199.1 691.8

Last Refresh: 08-May-2026 12:07:20

Bureau of Meteorology